Terminal Aerodrome Forecast
Issued by NWS Greer, SC

Home | Current Version | Previous Version | Text Only | Print | Product List | Glossary On
Versions: 1 2 3 4 5 6 7 8 9 10 11 12 13 14 15 16 17 18 19 20 21 22 23 24 25 26 27 28 29 30 31 32 33
000
FTUS42 KGSP 252335
TAFCLT
TAF
KCLT 252335Z 2600/2706 22006KT P6SM OVC090
     FM260900 36003KT 4SM -SHRA BR OVC050
     FM261200 05004KT 4SM -SHRA BR OVC025
     FM261600 03005KT P6SM OVC008 PROB30 2616/2621 4SM -SHRA OVC004
     FM270400 03005KT 6SM BR SCT050=

USA.gov is the U.S. government's official web portal to all federal, state and local government web resources and services.